• Join FlightAware (Why Join?)
  • Login
  • US Flag 
01:42AM EDT


 

Airport Tracker/Info


-or-


 

Live Flight TrackerFlight Track Log ✈ BJS339 ✈ 22-Dec-2013 ✈ CYUL - KDEN

Flight Track Log - Related Links

Times and Time Zones

All times are in EST time to prevent confusion due to time zone crossing. See the BJS339 flight status page for this flight to view local times or setup timezone preferences in your user account.

Time Position Orientation Groundspeed Altitude Reporting Facility
EST Latitude Longitude Course Direction KTS MPH feet Rate Location/Type
09:24AM 45.4667 -73.7000 282° West 180 207 1,400  Level Montreal Center
09:25AM 45.5333 -73.6500 28° Northeast 230 265 4,200 2,640 Climbing Montreal Center
09:26AM 45.5667 -73.7500 295° West 280 322 6,700 2,700 Climbing Montreal Center
09:27AM 45.5833 -73.8167 290° West 250 288 9,600 2,880 Climbing Montreal Center
09:28AM 45.6167 -73.9333 292° West 270 311 12,500 2,640 Climbing Montreal Center
09:29AM 45.6500 -74.0333 296° West 280 322 14,900 2,460 Climbing Montreal Center
09:30AM 45.4329 -74.6369 282° West  Level Estimated
09:30AM 45.6667 -74.1500 282° West 280 322 17,500  Level Montreal Center
09:31AM 45.7000 -74.2667 292° West 280 322 19,800 2,160 Climbing Montreal Center
09:32AM 45.7167 -74.3667 283° West 270 311 21,900 1,560 Climbing Montreal Center
09:33AM 45.7167 -74.4500 270° West 280 322 23,000 1,200 Climbing Montreal Center
09:34AM 45.7333 -74.5833 280° West 290 334 24,300 1,080 Climbing Montreal Center
09:35AM 45.7333 -74.7000 270° West 310 357 25,200 960 Climbing Montreal Center
09:36AM 45.7500 -74.8333 280° West 320 368 26,300 960 Climbing Montreal Center
09:37AM 45.7667 -74.9667 280° West 340 391 27,200 960 Climbing Montreal Center
09:38AM 45.7833 -75.1000 280° West 340 391 28,300 1,080 Climbing Montreal Center
09:39AM 45.8000 -75.2167 282° West 340 391 29,400 1,080 Climbing Montreal Center
09:40AM 45.8333 -75.3667 288° West 340 391 30,500 960 Climbing Montreal Center
09:41AM 45.8500 -75.5167 279° West 350 403 31,400 960 Climbing Montreal Center
09:42AM 45.8667 -75.6333 282° West 350 403 32,500 960 Climbing Montreal Center
09:43AM 45.8833 -75.7833 279° West 340 391 33,400 900 Climbing Montreal Center
09:44AM 45.9167 -75.9000 292° West 330 380 34,400 960 Climbing Montreal Center
09:45AM 45.9333 -76.0333 280° West 330 380 35,400 900 Climbing Montreal Center
09:46AM 45.9333 -76.1667 270° West 310 357 36,200 600 Climbing Montreal Center
09:47AM 45.9500 -76.2833 282° West 310 357 36,700 480 Climbing Montreal Center
09:48AM 45.9667 -76.4000 282° West 310 357 37,200 480 Climbing Montreal Center
09:49AM 45.9833 -76.5167 282° West 310 357 37,700 360 Climbing Montreal Center
09:50AM 45.9833 -76.6500 270° West 310 357 38,000 120 Climbing Montreal Center
09:51AM 46.0000 -76.7833 280° West 310 357 38,000  Level Montreal Center
09:52AM 46.0000 -76.9167 270° West 320 368 38,000  Level Montreal Center
09:53AM 46.0000 -77.0333 270° West 320 368 38,000  Level Montreal Center
09:54AM 46.0167 -77.1500 282° West 330 380 38,000  Level Montreal Center
09:55AM 46.0333 -77.3000 279° West 320 368 38,000  Level Montreal Center
09:56AM 46.0500 -77.4167 282° West 320 368 38,000  Level Montreal Center
09:57AM 46.0500 -77.5333 270° West 320 368 38,000  Level Montreal Center
09:58AM 46.0667 -77.6833 279° West 320 368 38,000  Level Montreal Center
09:59AM 46.0833 -77.8000 282° West 320 368 38,000  Level Montreal Center
10:00AM 46.0833 -77.9333 270° West 320 368 38,000  Level Montreal Center
10:01AM 46.1000 -78.0500 282° West 320 368 38,000  Level Montreal Center
10:02AM 46.1000 -78.2000 270° West 320 368 38,000  Level Montreal Center
10:03AM 46.1167 -78.3167 282° West 320 368 38,000  Level Montreal Center
10:04AM 46.1167 -78.4667 270° West 320 368 38,000  Level Montreal Center
10:05AM 46.1333 -78.5833 282° West 320 368 38,000  Level Montreal Center
10:06AM 46.1500 -78.7000 282° West 320 368 38,000  Level Montreal Center
10:07AM 46.1667 -78.8500 279° West 320 368 38,000  Level Montreal Center
10:08AM 46.1500 -78.9667 258° West 320 368 38,000  Level Montreal Center
10:09AM 46.1667 -79.0833 282° West 320 368 38,000  Level Montreal Center
10:10AM 46.1833 -79.2167 280° West 320 368 38,000  Level Montreal Center
10:11AM 46.2000 -79.3667 279° West 320 368 38,000  Level Montreal Center
10:12AM 46.1833 -79.4833 258° West 320 368 38,000  Level Montreal Center
10:13AM 46.2000 -79.6000 282° West 320 368 38,000  Level Montreal Center
10:14AM 46.2167 -79.7500 279° West 320 368 38,000  Level Montreal Center
10:15AM 46.2333 -79.8667 282° West 320 368 38,000  Level Montreal Center
10:16AM 46.2167 -80.0167 261° West 330 380 38,000  Level Montreal Center
10:17AM 46.2333 -80.1333 282° West 330 380 38,000  Level Montreal Center
10:18AM 46.2500 -80.2667 280° West 330 380 38,000  Level Montreal Center
10:19AM 46.2500 -80.4000 270° West 330 380 38,000  Level Montreal Center
10:20AM 46.2500 -80.5333 270° West 330 380 38,000  Level Montreal Center
10:21AM 46.2667 -80.6667 280° West 340 391 38,000  Level Montreal Center
10:22AM 46.2667 -80.8167 270° West 340 391 38,000  Level Montreal Center
10:23AM 46.2833 -80.9500 280° West 340 391 38,000  Level Montreal Center
10:24AM 46.2833 -81.0833 270° West 340 391 38,000  Level Montreal Center
10:25AM 46.2833 -81.2167 270° West 340 391 38,000  Level Montreal Center
10:26AM 46.3000 -81.3667 279° West 330 380 38,000  Level Montreal Center
10:27AM 46.3167 -81.4833 282° West 330 380 38,000  Level Montreal Center
10:28AM 46.3167 -81.6333 270° West 330 380 38,000  Level Montreal Center
10:29AM 46.3167 -81.7500 270° West 330 380 38,000  Level Montreal Center
10:30AM 46.3167 -81.9000 270° West 340 391 38,000  Level Montreal Center
10:31AM 46.3333 -82.0500 279° West 340 391 38,000  Level Montreal Center
10:32AM 46.3333 -82.1667 270° West 340 391 38,000  Level Montreal Center
10:33AM 46.3500 -82.3167 279° West 350 403 38,000  Level Montreal Center
10:34AM 46.3333 -82.4500 260° West 350 403 38,000  Level Montreal Center
10:35AM 46.3500 -82.5833 280° West 350 403 38,000  Level Montreal Center
10:36AM 46.3500 -82.7333 270° West 350 403 38,000  Level Montreal Center
10:37AM 46.3667 -82.8833 279° West 350 403 38,000  Level Montreal Center
10:38AM 46.3667 -83.0167 270° West 350 403 38,000  Level Montreal Center
10:39AM 46.3667 -83.1667 270° West 350 403 38,000  Level Montreal Center
10:41AM 46.3889 -83.3225 282° West 361 415 38,000  Level Minneapolis Center
10:42AM 46.3925 -83.4681 272° West 363 418 38,000  Level Minneapolis Center
10:43AM 46.3961 -83.6128 272° West 363 418 38,000 240 Level Minneapolis Center
10:43AM 46.4000 -83.7500 272° West 360 414 38,500 660 Climbing Toronto Center
10:44AM 46.3833 -83.8833 260° West 350 403 39,300 720 Climbing Toronto Center
10:45AM 46.4000 -84.0167 280° West 340 391 40,000 300 Climbing Toronto Center
10:46AM 46.4000 -84.1500 270° West 340 391 40,000  Level Toronto Center
10:47AM 46.4000 -84.3000 270° West 340 391 40,000  Level Toronto Center
10:48AM 46.3833 -84.4167 258° West 340 391 40,000  Level Toronto Center
10:49AM 46.3667 -84.5667 261° West 350 403 40,000  Level Toronto Center
10:50AM 46.3333 -84.7000 250° West 340 391 40,000  Level Toronto Center
10:51AM 46.3333 -84.8167 270° West 350 403 40,000  Level Toronto Center
10:52AM 46.3167 -85.0000 263° West 350 403 40,000  Level Toronto Center
10:53AM 46.2833 -85.1167 248° West 350 403 40,000  Level Toronto Center
10:54AM 46.2667 -85.2500 260° West 350 403 40,000  Level Toronto Center
10:55AM 46.2333 -85.4000 252° West 350 403 40,000  Level Toronto Center
10:57AM 46.2281 -85.5978 268° West 354 407 40,000  Level Minneapolis Center
10:58AM 46.2056 -85.7353 257° West 354 407 40,000  Level Minneapolis Center
10:59AM 46.1847 -85.8764 258° West 358 412 40,000  Level Minneapolis Center
11:00AM 46.1628 -86.0158 257° West 359 413 40,000  Level Minneapolis Center
11:01AM 46.1403 -86.1567 257° West 362 417 40,000  Level Minneapolis Center
11:02AM 46.1183 -86.2981 257° West 363 418 40,000  Level Minneapolis Center
11:03AM 46.0967 -86.4394 258° West 363 418 40,000  Level Minneapolis Center
11:04AM 46.0739 -86.5794 257° West 362 417 40,000  Level Minneapolis Center
11:05AM 46.0511 -86.7172 257° West 359 413 40,000  Level Minneapolis Center
11:06AM 46.0253 -86.8847 258° West 359 413 40,000  Level Minneapolis Center
11:07AM 46.0017 -87.0233 256° West 360 414 40,000  Level Minneapolis Center
11:08AM 45.9789 -87.1625 257° West 360 414 40,000  Level Minneapolis Center
11:09AM 45.9561 -87.3028 257° West 362 417 40,000  Level Minneapolis Center
11:10AM 45.9319 -87.4428 256° West 364 419 40,000  Level Minneapolis Center
11:11AM 45.9083 -87.5819 256° West 362 417 40,000  Level Minneapolis Center
11:12AM 45.8844 -87.7225 256° West 363 418 40,000  Level Minneapolis Center
11:13AM 45.8603 -87.8625 256° West 364 419 40,000  Level Minneapolis Center
11:14AM 45.8317 -88.0297 256° West 362 417 40,000  Level Minneapolis Center
11:15AM 45.8100 -88.1714 258° West 365 420 40,000  Level Minneapolis Center
11:16AM 45.7997 -88.2975 263° West 369 425 40,000  Level Minneapolis Center
11:17AM 45.7822 -88.4728 262° West 370 426 40,000  Level Minneapolis Center
11:18AM 45.7686 -88.6211 263° West 373 429 40,000  Level Minneapolis Center
11:19AM 45.7539 -88.7669 262° West 370 426 40,000  Level Minneapolis Center
11:20AM 45.7397 -88.9158 262° West 374 430 40,000  Level Minneapolis Center
11:21AM 45.7256 -89.0633 262° West 374 430 40,000  Level Minneapolis Center
11:22AM 45.7106 -89.2089 262° West 373 429 40,000  Level Minneapolis Center
11:23AM 45.6958 -89.3536 262° West 371 427 40,000  Level Minneapolis Center
11:25AM 45.6800 -89.5006 261° West 373 429 40,000  Level Minneapolis Center
11:26AM 45.6653 -89.6475 262° West 374 430 40,000  Level Minneapolis Center
11:27AM 45.6481 -89.8028 261° West 374 430 40,000  Level Minneapolis Center
11:28AM 45.6314 -89.9517 261° West 376 433 40,000  Level Minneapolis Center
11:29AM 45.6156 -90.0989 261° West 375 432 40,000  Level Minneapolis Center
11:30AM 45.5986 -90.2461 261° West 376 433 40,000  Level Minneapolis Center
11:31AM 45.5800 -90.4242 262° West 377 434 40,000  Level Minneapolis Center
11:32AM 45.5617 -90.5728 260° West 379 436 40,000  Level Minneapolis Center
11:33AM 45.5444 -90.7214 261° West 379 436 40,000  Level Minneapolis Center
11:34AM 45.5272 -90.8697 261° West 379 436 40,000  Level Minneapolis Center
11:35AM 45.5089 -91.0178 260° West 380 437 40,000  Level Minneapolis Center
11:36AM 45.4911 -91.1669 260° West 381 438 40,000  Level Minneapolis Center
11:37AM 45.4744 -91.3075 260° West 381 438 40,000  Level Minneapolis Center
11:38AM 45.4525 -91.4869 260° West 384 442 40,000  Level Minneapolis Center
11:39AM 45.4342 -91.6356 260° West 383 441 40,000  Level Minneapolis Center
11:40AM 45.4158 -91.7844 260° West 383 441 40,000  Level Minneapolis Center
11:41AM 45.3933 -91.9308 258° West 382 440 40,000  Level Minneapolis Center
11:42AM 45.3667 -92.0781 256° West 384 442 40,000  Level Minneapolis Center
11:43AM 45.3428 -92.2258 257° West 386 444 40,000  Level Minneapolis Center
11:44AM 45.3189 -92.3744 257° West 388 447 40,000  Level Minneapolis Center
11:45AM 45.2936 -92.5228 256° West 389 448 40,000  Level Minneapolis Center
11:46AM 45.2642 -92.7011 257° West 389 448 40,000  Level Minneapolis Center
11:47AM 45.2386 -92.8481 256° West 387 445 40,000  Level Minneapolis Center
11:48AM 45.2128 -92.9956 256° West 388 447 40,000  Level Minneapolis Center
11:49AM 45.1869 -93.1419 256° West 387 445 40,000  Level Minneapolis Center
11:50AM 45.1614 -93.2872 256° West 385 443 40,000  Level Minneapolis Center
11:51AM 45.1258 -93.4272 250° West 382 440 40,000  Level Minneapolis Center
11:52AM 45.0600 -93.5808 239° Southwest 383 441 40,000  Level Minneapolis Center
11:53AM 45.0056 -93.7103 239° Southwest 386 444 40,000  Level Minneapolis Center
11:54AM 44.9500 -93.8417 239° Southwest 390 449 40,000  Level Minneapolis Center
11:55AM 44.8942 -93.9739 239° Southwest 394 453 40,000  Level Minneapolis Center
11:56AM 44.8392 -94.1050 239° Southwest 393 452 40,000  Level Minneapolis Center
11:57AM 44.7836 -94.2375 239° Southwest 394 453 40,000  Level Minneapolis Center
11:58AM 44.7158 -94.3958 239° Southwest 395 455 40,000  Level Minneapolis Center
11:59AM 44.6594 -94.5281 239° Southwest 396 456 40,000  Level Minneapolis Center
12:00PM 44.6078 -94.6472 239° Southwest 395 455 40,000  Level Minneapolis Center
12:01PM 44.5511 -94.7794 239° Southwest 396 456 40,000  Level Minneapolis Center
12:02PM 44.4814 -94.9386 238° Southwest 399 459 40,000  Level Minneapolis Center
12:03PM 44.4233 -95.0714 239° Southwest 401 461 40,000  Level Minneapolis Center
12:05PM 44.3644 -95.2042 238° Southwest 403 464 40,000  Level Minneapolis Center
12:06PM 44.3061 -95.3375 239° Southwest 402 463 40,000  Level Minneapolis Center
12:07PM 44.2467 -95.4711 238° Southwest 405 466 40,000  Level Minneapolis Center
12:08PM 44.1869 -95.6050 238° Southwest 406 467 40,000  Level Minneapolis Center
12:09PM 44.1267 -95.7397 238° Southwest 407 468 40,000  Level Minneapolis Center
12:10PM 44.0658 -95.8736 238° Southwest 407 468 40,000  Level Minneapolis Center
12:11PM 43.9931 -96.0356 238° Southwest 407 468 40,000  Level Minneapolis Center
12:12PM 43.9303 -96.1706 237° Southwest 410 472 40,000  Level Minneapolis Center
12:13PM 43.8681 -96.3044 237° Southwest 409 471 40,000  Level Minneapolis Center
12:14PM 43.8061 -96.4400 238° Southwest 413 475 40,000  Level Minneapolis Center
12:15PM 43.7436 -96.5717 237° Southwest 410 472 40,000  Level Minneapolis Center
12:16PM 43.6703 -96.7311 238° Southwest 409 471 40,000  Level Minneapolis Center
12:17PM 43.6025 -96.8583 234° Southwest 411 473 40,000  Level Minneapolis Center
12:18PM 43.5286 -96.9794 230° Southwest 412 474 40,000  Level Minneapolis Center
12:19PM 43.4408 -97.1247 230° Southwest 413 475 40,000  Level Minneapolis Center
12:20PM 43.3681 -97.2458 230° Southwest 412 474 40,000  Level Minneapolis Center
12:21PM 43.2953 -97.3647 230° Southwest 409 471 40,000  Level Minneapolis Center
12:22PM 43.2231 -97.4850 231° Southwest 409 471 40,000  Level Minneapolis Center
12:23PM 43.1492 -97.6033 229° Southwest 410 472 40,000  Level Minneapolis Center
12:24PM 43.0764 -97.7228 230° Southwest 409 471 40,000  Level Minneapolis Center
12:25PM 43.0022 -97.8414 229° Southwest 410 472 40,000  Level Minneapolis Center
12:26PM 42.9125 -97.9867 230° Southwest 417 480 40,000  Level Minneapolis Center
12:27PM 42.8367 -98.1072 229° Southwest 418 481 40,000  Level Minneapolis Center
12:28PM 42.7614 -98.2250 229° Southwest 420 483 40,000  Level Minneapolis Center
12:29PM 42.6853 -98.3489 230° Southwest 424 488 40,000  Level Minneapolis Center
12:30PM 42.6089 -98.4711 230° Southwest 425 489 40,000  Level Minneapolis Center
12:31PM 42.5314 -98.5903 229° Southwest 422 486 40,000  Level Minneapolis Center
12:33PM 42.4444 -98.7403 232° Southwest 422 486 40,000  Level Minneapolis Center
12:34PM 42.3856 -98.8792 240° Southwest 423 487 40,000  Level Minneapolis Center
12:35PM 42.3242 -99.0139 238° Southwest 423 487 40,000  Level Minneapolis Center
12:36PM 42.2636 -99.1492 239° Southwest 422 486 40,000  Level Minneapolis Center
12:37PM 42.2014 -99.2864 239° Southwest 428 493 40,000  Level Minneapolis Center
12:38PM 42.1403 -99.4222 239° Southwest 425 489 40,000  Level Minneapolis Center
12:39PM 42.0867 -99.5606 242° Southwest 420 483 40,000  Level Minneapolis Center
12:40PM 42.0283 -99.7303 245° Southwest 418 481 40,000  Level Minneapolis Center
12:41PM 41.9781 -99.8731 245° Southwest 421 484 40,000  Level Minneapolis Center
12:42PM 41.9283 -100.0136 245° Southwest 419 482 40,000  Level Minneapolis Center
12:42PM 41.9022 -100.0856 244° Southwest 422 486 40,000  Level Denver Center
12:43PM 41.8533 -100.2222 244° Southwest 424 488 40,000  Level Denver Center
12:44PM 41.7964 -100.3814 244° Southwest 425 489 40,000 -240 Level Denver Center
12:45PM 41.7467 -100.5178 244° Southwest 425 489 39,600 -780 Descending Denver Center
12:46PM 41.6894 -100.6792 245° Southwest 430 495 38,500 -1,020 Descending Denver Center
12:47PM 41.6392 -100.8167 244° Southwest 431 496 37,500 -1,020 Descending Denver Center
12:48PM 41.5811 -100.9742 244° Southwest 427 491 36,400 -1,020 Descending Denver Center
12:50PM 41.5317 -101.1119 244° Southwest 430 495 35,500 -1,020 Descending Denver Center
12:51PM 41.4714 -101.2722 243° Southwest 434 499 34,300 -780 Descending Denver Center
12:52PM 41.4181 -101.4144 243° Southwest 446 513 34,000 -180 Descending Denver Center
12:53PM 41.3578 -101.5778 244° Southwest 443 510 34,000  Level Denver Center
12:54PM 41.3053 -101.7203 244° Southwest 448 516 34,000 -180 Level Denver Center
12:58PM 41.0681 -102.3389 242° Southwest 462 532 33,100 -420 Descending Denver Center
12:59PM 41.0056 -102.5011 243° Southwest 444 511 31,900 -1,380 Descending Denver Center
01:00PM 40.9369 -102.6794 243° Southwest 428 493 30,000 -1,620 Descending Denver Center
01:01PM 40.8836 -102.8136 242° Southwest 430 495 28,600 -1,020 Descending Denver Center
01:02PM 40.8225 -102.9711 243° Southwest 430 495 28,000 -300 Descending Denver Center
01:03PM 40.8812 -102.7698 242° Southwest  Level FlightAware Approximate
01:03PM 40.7753 -103.0903 242° Southwest 423 487 28,000  Level Denver Center
01:04PM 40.7089 -103.2578 242° Southwest 431 496 28,000  Level Denver Center
01:05PM 40.6533 -103.3981 242° Southwest 433 498 28,000 -420 Level Denver Center
01:06PM 40.5978 -103.5367 242° Southwest 429 494 27,200 -1,380 Descending Denver Center
01:08PM 40.5464 -103.6650 242° Southwest 404 465 25,000 -2,040 Descending Denver Center
01:09PM 40.4878 -103.8078 242° Southwest 374 430 22,600 -2,280 Descending Denver Center
01:10PM 40.4128 -103.9278 231° Southwest 378 435 20,400 -2,040 Descending Denver Center
01:11PM 40.3486 -104.0167 227° Southwest 341 392 18,400 -1,920 Descending Denver Center
01:12PM 40.2889 -104.1103 230° Southwest 309 356 16,400 -1,980 Descending Denver Center
01:13PM 40.2581 -104.2064 247° West 277 319 14,300 -1,680 Descending Denver Center
01:14PM 40.2500 -104.3103 264° West 267 307 13,000 -1,320 Descending Denver Center
01:15PM 40.2425 -104.3944 263° West 240 276 11,600 -1,440 Descending Denver Center
01:16PM 40.2103 -104.4733 242° Southwest 230 265 10,100 -1,260 Descending Denver Center
01:17PM 40.1547 -104.5131 209° Southwest 234 269 9,000 -780 Descending Denver Center
01:18PM 40.1167 -104.5333 202° Southwest 235 270 8,800 -540 Descending Denver TRACON
01:18PM 40.0667 -104.5667 207° Southwest 228 262 8,200 -540 Descending Denver TRACON
01:19PM 40.0000 -104.6167 210° Southwest 229 264 7,800 -420 Descending Denver TRACON
01:20PM 39.9789 -104.6258 198° South 228 262 7,600 -720 Descending Denver Center
01:21PM 39.9303 -104.6564 206° Southwest 185 213 6,700 -780 Descending Denver Center
01:22PM 39.8894 -104.6594 183° South 148 170 6,100 -600 Descending Denver Center
01:23PM 39.8511 -104.6606 181° South 138 159 5,500 -600 Descending Denver Center
01:25PM 39.8500 -104.6667 190° South  Level FlightAware Approximate
01:32PM 39.8617 -104.6732 190° South  Level Estimated
01:33PM 39.8617 -104.6732 190° South  Level Estimated